sensor_id;sensor_type;location;lat;lon;timestamp;temperature;humidity
70557;DHT22;58107;51.034;3.726;2022-07-30T00:00:09;20.10;76.30
70557;DHT22;58107;51.034;3.726;2022-07-30T00:02:36;19.90;77.20
70557;DHT22;58107;51.034;3.726;2022-07-30T00:05:05;19.80;77.70
70557;DHT22;58107;51.034;3.726;2022-07-30T00:07:33;19.80;77.70
70557;DHT22;58107;51.034;3.726;2022-07-30T00:10:02;19.90;77.10
70557;DHT22;58107;51.034;3.726;2022-07-30T00:12:30;19.90;76.70
70557;DHT22;58107;51.034;3.726;2022-07-30T00:14:58;19.70;77.00
70557;DHT22;58107;51.034;3.726;2022-07-30T00:17:26;19.60;77.70
70557;DHT22;58107;51.034;3.726;2022-07-30T00:19:53;19.50;78.30
70557;DHT22;58107;51.034;3.726;2022-07-30T00:22:21;19.20;79.50
70557;DHT22;58107;51.034;3.726;2022-07-30T00:24:49;19.00;80.50
70557;DHT22;58107;51.034;3.726;2022-07-30T00:27:17;19.00;80.60
70557;DHT22;58107;51.034;3.726;2022-07-30T00:29:44;18.90;81.10
70557;DHT22;58107;51.034;3.726;2022-07-30T00:32:12;18.80;82.00
70557;DHT22;58107;51.034;3.726;2022-07-30T00:34:40;18.70;82.40
70557;DHT22;58107;51.034;3.726;2022-07-30T00:37:08;18.70;82.30
70557;DHT22;58107;51.034;3.726;2022-07-30T00:39:35;18.70;82.60
70557;DHT22;58107;51.034;3.726;2022-07-30T00:42:03;18.80;82.50
70557;DHT22;58107;51.034;3.726;2022-07-30T00:44:31;18.80;82.40
70557;DHT22;58107;51.034;3.726;2022-07-30T00:46:59;18.80;82.40
70557;DHT22;58107;51.034;3.726;2022-07-30T00:49:27;18.70;82.60
70557;DHT22;58107;51.034;3.726;2022-07-30T00:51:55;18.70;83.20
70557;DHT22;58107;51.034;3.726;2022-07-30T00:54:22;18.50;83.80
70557;DHT22;58107;51.034;3.726;2022-07-30T00:56:50;18.50;83.80
70557;DHT22;58107;51.034;3.726;2022-07-30T00:59:23;18.60;83.20
70557;DHT22;58107;51.034;3.726;2022-07-30T01:01:52;18.70;83.00
70557;DHT22;58107;51.034;3.726;2022-07-30T01:04:21;18.70;82.40
70557;DHT22;58107;51.034;3.726;2022-07-30T01:06:49;18.60;82.90
70557;DHT22;58107;51.034;3.726;2022-07-30T01:09:17;18.60;82.80
70557;DHT22;58107;51.034;3.726;2022-07-30T01:11:44;18.60;82.90
70557;DHT22;58107;51.034;3.726;2022-07-30T01:14:12;18.60;82.90
70557;DHT22;58107;51.034;3.726;2022-07-30T01:16:41;18.60;83.30
70557;DHT22;58107;51.034;3.726;2022-07-30T01:19:19;18.60;83.30
70557;DHT22;58107;51.034;3.726;2022-07-30T01:22:16;18.30;85.40
70557;DHT22;58107;51.034;3.726;2022-07-30T01:24:51;17.90;86.20
70557;DHT22;58107;51.034;3.726;2022-07-30T01:27:13;17.90;86.90
70557;DHT22;58107;51.034;3.726;2022-07-30T01:29:43;17.80;86.90
70557;DHT22;58107;51.034;3.726;2022-07-30T01:32:12;17.80;86.80
70557;DHT22;58107;51.034;3.726;2022-07-30T01:34:41;17.90;86.70
70557;DHT22;58107;51.034;3.726;2022-07-30T01:37:11;18.00;86.20
70557;DHT22;58107;51.034;3.726;2022-07-30T01:39:39;18.10;85.70
70557;DHT22;58107;51.034;3.726;2022-07-30T01:42:08;18.10;85.30
70557;DHT22;58107;51.034;3.726;2022-07-30T01:44:38;18.00;85.50
70557;DHT22;58107;51.034;3.726;2022-07-30T01:47:07;18.00;86.40
70557;DHT22;58107;51.034;3.726;2022-07-30T01:49:36;17.90;86.20
70557;DHT22;58107;51.034;3.726;2022-07-30T01:52:07;17.90;86.80
70557;DHT22;58107;51.034;3.726;2022-07-30T01:54:37;18.10;85.50
70557;DHT22;58107;51.034;3.726;2022-07-30T01:57:06;18.10;85.30
70557;DHT22;58107;51.034;3.726;2022-07-30T01:59:35;18.00;86.00
70557;DHT22;58107;51.034;3.726;2022-07-30T02:02:03;18.00;86.00
70557;DHT22;58107;51.034;3.726;2022-07-30T02:04:31;18.00;85.70
70557;DHT22;58107;51.034;3.726;2022-07-30T02:07:13;18.00;85.40
70557;DHT22;58107;51.034;3.726;2022-07-30T02:09:35;18.10;85.20
70557;DHT22;58107;51.034;3.726;2022-07-30T02:12:04;18.00;85.40
70557;DHT22;58107;51.034;3.726;2022-07-30T02:15:00;18.00;85.00
70557;DHT22;58107;51.034;3.726;2022-07-30T02:17:29;18.10;85.50
70557;DHT22;58107;51.034;3.726;2022-07-30T02:19:58;18.00;85.60
70557;DHT22;58107;51.034;3.726;2022-07-30T02:22:28;17.70;87.20
70557;DHT22;58107;51.034;3.726;2022-07-30T02:24:59;17.60;88.10
70557;DHT22;58107;51.034;3.726;2022-07-30T02:27:34;17.60;88.10
70557;DHT22;58107;51.034;3.726;2022-07-30T02:29:59;17.60;87.70
70557;DHT22;58107;51.034;3.726;2022-07-30T02:32:34;17.70;87.50
70557;DHT22;58107;51.034;3.726;2022-07-30T02:35:06;17.70;87.30
70557;DHT22;58107;51.034;3.726;2022-07-30T02:37:34;17.80;86.80
70557;DHT22;58107;51.034;3.726;2022-07-30T02:40:03;17.90;86.40
70557;DHT22;58107;51.034;3.726;2022-07-30T02:42:31;17.70;87.10
70557;DHT22;58107;51.034;3.726;2022-07-30T02:45:00;17.70;87.30
70557;DHT22;58107;51.034;3.726;2022-07-30T02:47:29;17.70;87.00
70557;DHT22;58107;51.034;3.726;2022-07-30T02:49:59;17.80;86.20
70557;DHT22;58107;51.034;3.726;2022-07-30T02:52:29;17.80;85.40
70557;DHT22;58107;51.034;3.726;2022-07-30T02:54:57;17.80;85.00
70557;DHT22;58107;51.034;3.726;2022-07-30T02:57:27;17.80;85.00
70557;DHT22;58107;51.034;3.726;2022-07-30T02:59:55;17.80;85.00
70557;DHT22;58107;51.034;3.726;2022-07-30T03:02:24;17.80;84.70
70557;DHT22;58107;51.034;3.726;2022-07-30T03:04:53;17.90;84.20
70557;DHT22;58107;51.034;3.726;2022-07-30T03:07:21;17.90;84.20
70557;DHT22;58107;51.034;3.726;2022-07-30T03:09:50;17.80;84.90
70557;DHT22;58107;51.034;3.726;2022-07-30T03:12:20;17.70;85.10
70557;DHT22;58107;51.034;3.726;2022-07-30T03:14:48;17.70;85.40
70557;DHT22;58107;51.034;3.726;2022-07-30T03:17:16;17.60;85.40
70557;DHT22;58107;51.034;3.726;2022-07-30T03:19:45;17.50;85.80
70557;DHT22;58107;51.034;3.726;2022-07-30T03:22:16;17.40;86.80
70557;DHT22;58107;51.034;3.726;2022-07-30T03:24:47;17.30;87.60
70557;DHT22;58107;51.034;3.726;2022-07-30T03:27:16;17.30;87.50
70557;DHT22;58107;51.034;3.726;2022-07-30T03:29:45;17.40;87.50
70557;DHT22;58107;51.034;3.726;2022-07-30T03:32:14;17.50;86.80
70557;DHT22;58107;51.034;3.726;2022-07-30T03:34:43;17.60;86.70
70557;DHT22;58107;51.034;3.726;2022-07-30T03:37:12;17.60;86.70
70557;DHT22;58107;51.034;3.726;2022-07-30T03:39:40;17.50;86.50
70557;DHT22;58107;51.034;3.726;2022-07-30T03:42:08;17.50;87.20
70557;DHT22;58107;51.034;3.726;2022-07-30T03:44:37;17.30;87.50
70557;DHT22;58107;51.034;3.726;2022-07-30T03:47:06;17.20;88.10
70557;DHT22;58107;51.034;3.726;2022-07-30T03:49:34;17.20;88.50
70557;DHT22;58107;51.034;3.726;2022-07-30T03:52:02;17.10;89.00
70557;DHT22;58107;51.034;3.726;2022-07-30T03:54:32;17.20;88.80
70557;DHT22;58107;51.034;3.726;2022-07-30T03:57:00;17.20;88.40
70557;DHT22;58107;51.034;3.726;2022-07-30T03:59:29;17.20;88.40
70557;DHT22;58107;51.034;3.726;2022-07-30T04:02:01;16.90;89.30
70557;DHT22;58107;51.034;3.726;2022-07-30T04:04:29;16.80;90.10
70557;DHT22;58107;51.034;3.726;2022-07-30T04:06:57;16.70;90.30
70557;DHT22;58107;51.034;3.726;2022-07-30T04:09:25;16.70;90.10
70557;DHT22;58107;51.034;3.726;2022-07-30T04:11:53;16.60;90.00
70557;DHT22;58107;51.034;3.726;2022-07-30T04:14:21;16.50;90.00
70557;DHT22;58107;51.034;3.726;2022-07-30T04:16:58;16.50;90.10
70557;DHT22;58107;51.034;3.726;2022-07-30T04:19:42;16.60;90.10
70557;DHT22;58107;51.034;3.726;2022-07-30T04:22:08;16.60;89.90
70557;DHT22;58107;51.034;3.726;2022-07-30T04:24:38;16.70;89.60
70557;DHT22;58107;51.034;3.726;2022-07-30T04:27:06;16.90;89.20
70557;DHT22;58107;51.034;3.726;2022-07-30T04:29:34;16.90;88.90
70557;DHT22;58107;51.034;3.726;2022-07-30T04:32:02;17.00;88.00
70557;DHT22;58107;51.034;3.726;2022-07-30T04:34:30;17.00;88.00
70557;DHT22;58107;51.034;3.726;2022-07-30T04:36:57;16.90;88.00
70557;DHT22;58107;51.034;3.726;2022-07-30T04:39:25;16.80;88.30
70557;DHT22;58107;51.034;3.726;2022-07-30T04:41:53;16.90;88.00
70557;DHT22;58107;51.034;3.726;2022-07-30T04:44:21;17.00;87.60
70557;DHT22;58107;51.034;3.726;2022-07-30T04:46:48;17.20;87.50
70557;DHT22;58107;51.034;3.726;2022-07-30T04:49:17;17.30;87.10
70557;DHT22;58107;51.034;3.726;2022-07-30T04:51:46;17.60;85.50
70557;DHT22;58107;51.034;3.726;2022-07-30T04:54:15;17.60;84.30
70557;DHT22;58107;51.034;3.726;2022-07-30T04:56:48;17.50;85.00
70557;DHT22;58107;51.034;3.726;2022-07-30T04:59:17;17.30;85.90
70557;DHT22;58107;51.034;3.726;2022-07-30T05:01:48;17.20;86.40
70557;DHT22;58107;51.034;3.726;2022-07-30T05:04:15;17.20;86.70
70557;DHT22;58107;51.034;3.726;2022-07-30T05:06:45;17.20;87.10
70557;DHT22;58107;51.034;3.726;2022-07-30T05:09:14;17.20;86.90
70557;DHT22;58107;51.034;3.726;2022-07-30T05:11:50;17.20;87.00
70557;DHT22;58107;51.034;3.726;2022-07-30T05:14:19;17.10;86.90
70557;DHT22;58107;51.034;3.726;2022-07-30T05:16:47;17.20;86.90
70557;DHT22;58107;51.034;3.726;2022-07-30T05:19:15;17.20;86.50
70557;DHT22;58107;51.034;3.726;2022-07-30T05:21:44;17.30;86.10
70557;DHT22;58107;51.034;3.726;2022-07-30T05:24:12;17.30;86.60
70557;DHT22;58107;51.034;3.726;2022-07-30T05:26:40;17.20;87.10
70557;DHT22;58107;51.034;3.726;2022-07-30T05:29:08;17.10;87.50
70557;DHT22;58107;51.034;3.726;2022-07-30T05:31:36;17.10;87.90
70557;DHT22;58107;51.034;3.726;2022-07-30T05:34:04;17.10;88.10
70557;DHT22;58107;51.034;3.726;2022-07-30T05:36:32;17.10;88.00
70557;DHT22;58107;51.034;3.726;2022-07-30T05:39:01;17.00;88.20
70557;DHT22;58107;51.034;3.726;2022-07-30T05:41:28;17.00;88.90
70557;DHT22;58107;51.034;3.726;2022-07-30T05:43:56;17.00;88.80
70557;DHT22;58107;51.034;3.726;2022-07-30T05:46:24;17.00;88.90
70557;DHT22;58107;51.034;3.726;2022-07-30T05:48:52;17.10;88.80
70557;DHT22;58107;51.034;3.726;2022-07-30T05:51:20;17.20;88.40
70557;DHT22;58107;51.034;3.726;2022-07-30T05:53:48;17.20;88.80
70557;DHT22;58107;51.034;3.726;2022-07-30T05:56:16;17.30;88.80
70557;DHT22;58107;51.034;3.726;2022-07-30T05:58:43;17.30;87.60
70557;DHT22;58107;51.034;3.726;2022-07-30T06:01:11;17.40;88.30
70557;DHT22;58107;51.034;3.726;2022-07-30T06:03:39;17.40;88.00
70557;DHT22;58107;51.034;3.726;2022-07-30T06:06:06;17.40;88.00
70557;DHT22;58107;51.034;3.726;2022-07-30T06:08:34;17.40;88.70
70557;DHT22;58107;51.034;3.726;2022-07-30T06:11:02;17.50;88.40
70557;DHT22;58107;51.034;3.726;2022-07-30T06:13:30;17.60;88.40
70557;DHT22;58107;51.034;3.726;2022-07-30T06:15:57;17.90;87.70
70557;DHT22;58107;51.034;3.726;2022-07-30T06:18:27;18.00;87.10
70557;DHT22;58107;51.034;3.726;2022-07-30T06:20:55;17.60;87.80
70557;DHT22;58107;51.034;3.726;2022-07-30T06:23:23;17.90;88.30
70557;DHT22;58107;51.034;3.726;2022-07-30T06:25:51;18.40;85.10
70557;DHT22;58107;51.034;3.726;2022-07-30T06:28:19;18.40;84.50
70557;DHT22;58107;51.034;3.726;2022-07-30T06:30:46;18.50;84.70
70557;DHT22;58107;51.034;3.726;2022-07-30T06:33:14;18.50;84.60
70557;DHT22;58107;51.034;3.726;2022-07-30T06:35:42;19.20;83.20
70557;DHT22;58107;51.034;3.726;2022-07-30T06:38:11;19.60;79.80
70557;DHT22;58107;51.034;3.726;2022-07-30T06:40:38;20.50;76.90
70557;DHT22;58107;51.034;3.726;2022-07-30T06:43:06;20.20;76.60
70557;DHT22;58107;51.034;3.726;2022-07-30T06:45:34;20.70;75.70
70557;DHT22;58107;51.034;3.726;2022-07-30T06:48:02;21.40;72.60
70557;DHT22;58107;51.034;3.726;2022-07-30T06:50:30;21.10;72.30
70557;DHT22;58107;51.034;3.726;2022-07-30T06:52:58;21.50;72.00
70557;DHT22;58107;51.034;3.726;2022-07-30T06:55:25;21.20;71.70
70557;DHT22;58107;51.034;3.726;2022-07-30T06:57:53;20.60;74.20
70557;DHT22;58107;51.034;3.726;2022-07-30T07:00:21;20.20;76.70
70557;DHT22;58107;51.034;3.726;2022-07-30T07:02:48;20.80;75.60
70557;DHT22;58107;51.034;3.726;2022-07-30T07:05:16;21.50;71.70
70557;DHT22;58107;51.034;3.726;2022-07-30T07:07:46;21.40;71.70
70557;DHT22;58107;51.034;3.726;2022-07-30T07:10:13;22.00;68.60
70557;DHT22;58107;51.034;3.726;2022-07-30T07:12:41;22.10;68.30
70557;DHT22;58107;51.034;3.726;2022-07-30T07:15:09;22.20;66.60
70557;DHT22;58107;51.034;3.726;2022-07-30T07:17:37;23.10;65.40
70557;DHT22;58107;51.034;3.726;2022-07-30T07:20:06;23.60;62.20
70557;DHT22;58107;51.034;3.726;2022-07-30T07:22:34;24.40;59.30
70557;DHT22;58107;51.034;3.726;2022-07-30T07:25:02;25.30;55.80
70557;DHT22;58107;51.034;3.726;2022-07-30T07:27:30;25.60;54.50
70557;DHT22;58107;51.034;3.726;2022-07-30T07:29:58;24.90;54.20
70557;DHT22;58107;51.034;3.726;2022-07-30T07:32:25;23.80;58.10
70557;DHT22;58107;51.034;3.726;2022-07-30T07:34:53;23.90;57.60
70557;DHT22;58107;51.034;3.726;2022-07-30T07:37:21;23.80;58.00
70557;DHT22;58107;51.034;3.726;2022-07-30T07:39:49;24.60;55.90
70557;DHT22;58107;51.034;3.726;2022-07-30T07:42:16;24.70;54.50
70557;DHT22;58107;51.034;3.726;2022-07-30T07:44:44;24.50;55.20
70557;DHT22;58107;51.034;3.726;2022-07-30T07:47:12;25.50;52.10
70557;DHT22;58107;51.034;3.726;2022-07-30T07:49:39;26.10;49.80
70557;DHT22;58107;51.034;3.726;2022-07-30T07:52:07;26.40;47.20
70557;DHT22;58107;51.034;3.726;2022-07-30T07:54:35;26.30;45.70
70557;DHT22;58107;51.034;3.726;2022-07-30T07:57:03;26.00;45.70
70557;DHT22;58107;51.034;3.726;2022-07-30T07:59:32;25.70;47.10
70557;DHT22;58107;51.034;3.726;2022-07-30T08:02:00;25.60;48.00
70557;DHT22;58107;51.034;3.726;2022-07-30T08:04:28;25.60;47.20
70557;DHT22;58107;51.034;3.726;2022-07-30T08:06:56;25.60;47.00
70557;DHT22;58107;51.034;3.726;2022-07-30T08:09:23;25.60;47.40
70557;DHT22;58107;51.034;3.726;2022-07-30T08:11:51;25.80;46.50
70557;DHT22;58107;51.034;3.726;2022-07-30T08:14:19;25.70;47.80
70557;DHT22;58107;51.034;3.726;2022-07-30T08:16:47;25.60;48.60
70557;DHT22;58107;51.034;3.726;2022-07-30T08:19:15;25.80;48.30
70557;DHT22;58107;51.034;3.726;2022-07-30T08:21:42;25.70;48.10
70557;DHT22;58107;51.034;3.726;2022-07-30T08:24:10;24.30;50.60
70557;DHT22;58107;51.034;3.726;2022-07-30T08:26:38;23.50;52.70
70557;DHT22;58107;51.034;3.726;2022-07-30T08:29:06;23.30;52.90
70557;DHT22;58107;51.034;3.726;2022-07-30T08:31:33;24.30;50.60
70557;DHT22;58107;51.034;3.726;2022-07-30T08:34:01;24.80;47.90
70557;DHT22;58107;51.034;3.726;2022-07-30T08:36:29;25.50;46.60
70557;DHT22;58107;51.034;3.726;2022-07-30T08:38:57;26.40;43.00
70557;DHT22;58107;51.034;3.726;2022-07-30T08:41:25;27.30;42.20
70557;DHT22;58107;51.034;3.726;2022-07-30T08:43:54;27.70;40.60
70557;DHT22;58107;51.034;3.726;2022-07-30T08:46:24;27.30;40.90
70557;DHT22;58107;51.034;3.726;2022-07-30T08:48:53;27.00;40.80
70557;DHT22;58107;51.034;3.726;2022-07-30T08:51:22;27.60;38.40
70557;DHT22;58107;51.034;3.726;2022-07-30T08:53:50;27.90;36.90
70557;DHT22;58107;51.034;3.726;2022-07-30T08:56:18;28.00;35.60
70557;DHT22;58107;51.034;3.726;2022-07-30T08:58:46;28.10;36.00
70557;DHT22;58107;51.034;3.726;2022-07-30T09:01:14;28.40;35.70
70557;DHT22;58107;51.034;3.726;2022-07-30T09:03:42;28.70;35.30
70557;DHT22;58107;51.034;3.726;2022-07-30T09:06:10;28.10;37.50
70557;DHT22;58107;51.034;3.726;2022-07-30T09:08:38;27.10;39.10
70557;DHT22;58107;51.034;3.726;2022-07-30T09:11:06;25.90;42.30
70557;DHT22;58107;51.034;3.726;2022-07-30T09:13:36;25.50;43.60
70557;DHT22;58107;51.034;3.726;2022-07-30T09:16:05;25.20;44.00
70557;DHT22;58107;51.034;3.726;2022-07-30T09:18:38;24.90;45.00
70557;DHT22;58107;51.034;3.726;2022-07-30T09:21:17;24.90;45.30
70557;DHT22;58107;51.034;3.726;2022-07-30T09:26:23;24.80;46.10
70557;DHT22;58107;51.034;3.726;2022-07-30T09:28:52;24.60;46.80
70557;DHT22;58107;51.034;3.726;2022-07-30T09:31:20;24.50;46.90
70557;DHT22;58107;51.034;3.726;2022-07-30T09:33:49;24.50;46.80
70557;DHT22;58107;51.034;3.726;2022-07-30T09:36:17;24.50;46.20
70557;DHT22;58107;51.034;3.726;2022-07-30T09:38:50;24.50;45.90
70557;DHT22;58107;51.034;3.726;2022-07-30T09:41:40;24.50;46.30
70557;DHT22;58107;51.034;3.726;2022-07-30T09:43:51;24.50;46.30
70557;DHT22;58107;51.034;3.726;2022-07-30T09:46:19;24.50;45.90
70557;DHT22;58107;51.034;3.726;2022-07-30T09:48:46;24.20;46.30
70557;DHT22;58107;51.034;3.726;2022-07-30T09:51:15;24.30;46.50
70557;DHT22;58107;51.034;3.726;2022-07-30T09:53:56;24.20;46.00
70557;DHT22;58107;51.034;3.726;2022-07-30T09:56:28;24.20;45.70
70557;DHT22;58107;51.034;3.726;2022-07-30T09:58:56;24.30;45.60
70557;DHT22;58107;51.034;3.726;2022-07-30T10:01:24;24.20;45.20
70557;DHT22;58107;51.034;3.726;2022-07-30T10:03:52;24.20;45.60
70557;DHT22;58107;51.034;3.726;2022-07-30T10:06:35;24.30;45.60
70557;DHT22;58107;51.034;3.726;2022-07-30T10:09:03;24.40;45.00
70557;DHT22;58107;51.034;3.726;2022-07-30T10:11:31;24.40;44.60
70557;DHT22;58107;51.034;3.726;2022-07-30T10:14:00;24.50;44.40
70557;DHT22;58107;51.034;3.726;2022-07-30T10:16:29;24.70;44.40
70557;DHT22;58107;51.034;3.726;2022-07-30T10:18:57;24.60;44.20
70557;DHT22;58107;51.034;3.726;2022-07-30T10:21:37;24.70;44.70
70557;DHT22;58107;51.034;3.726;2022-07-30T10:24:02;24.70;44.60
70557;DHT22;58107;51.034;3.726;2022-07-30T10:26:33;24.80;44.70
70557;DHT22;58107;51.034;3.726;2022-07-30T10:29:01;24.90;44.70
70557;DHT22;58107;51.034;3.726;2022-07-30T10:31:29;25.50;44.20
70557;DHT22;58107;51.034;3.726;2022-07-30T10:33:57;25.50;43.70
70557;DHT22;58107;51.034;3.726;2022-07-30T10:36:26;25.60;43.30
70557;DHT22;58107;51.034;3.726;2022-07-30T10:38:55;25.90;43.00
70557;DHT22;58107;51.034;3.726;2022-07-30T10:49:34;26.90;38.70
70557;DHT22;58107;51.034;3.726;2022-07-30T10:52:02;27.60;38.30
70557;DHT22;58107;51.034;3.726;2022-07-30T10:54:41;28.30;37.30
70557;DHT22;58107;51.034;3.726;2022-07-30T10:57:21;29.20;35.50
70557;DHT22;58107;51.034;3.726;2022-07-30T11:02:26;30.70;32.60
70557;DHT22;58107;51.034;3.726;2022-07-30T11:07:47;30.20;32.20
70557;DHT22;58107;51.034;3.726;2022-07-30T11:10:36;28.90;34.70
70557;DHT22;58107;51.034;3.726;2022-07-30T11:13:08;29.90;33.50
70557;DHT22;58107;51.034;3.726;2022-07-30T11:15:57;30.80;31.80
70557;DHT22;58107;51.034;3.726;2022-07-30T11:18:26;30.30;32.00
70557;DHT22;58107;51.034;3.726;2022-07-30T11:23:43;29.40;33.40
70557;DHT22;58107;51.034;3.726;2022-07-30T11:28:59;32.60;29.30
70557;DHT22;58107;51.034;3.726;2022-07-30T11:31:29;32.10;29.30
70557;DHT22;58107;51.034;3.726;2022-07-30T11:37:01;31.20;30.50
70557;DHT22;58107;51.034;3.726;2022-07-30T11:39:24;31.40;30.40
70557;DHT22;58107;51.034;3.726;2022-07-30T11:47:55;29.50;34.20
70557;DHT22;58107;51.034;3.726;2022-07-30T11:50:27;29.30;34.80
70557;DHT22;58107;51.034;3.726;2022-07-30T11:53:04;29.70;34.00
70557;DHT22;58107;51.034;3.726;2022-07-30T11:55:35;29.90;33.50
70557;DHT22;58107;51.034;3.726;2022-07-30T11:58:07;29.10;34.20
70557;DHT22;58107;51.034;3.726;2022-07-30T12:00:40;28.80;35.50
70557;DHT22;58107;51.034;3.726;2022-07-30T12:03:11;28.50;35.80
70557;DHT22;58107;51.034;3.726;2022-07-30T12:05:40;28.60;35.60
70557;DHT22;58107;51.034;3.726;2022-07-30T12:08:09;28.60;35.40
70557;DHT22;58107;51.034;3.726;2022-07-30T12:10:37;28.50;34.10
70557;DHT22;58107;51.034;3.726;2022-07-30T12:13:14;28.30;35.30
70557;DHT22;58107;51.034;3.726;2022-07-30T12:15:46;28.90;35.10
70557;DHT22;58107;51.034;3.726;2022-07-30T12:18:22;28.90;34.60
70557;DHT22;58107;51.034;3.726;2022-07-30T12:20:58;28.60;35.00
70557;DHT22;58107;51.034;3.726;2022-07-30T12:23:27;28.00;35.70
70557;DHT22;58107;51.034;3.726;2022-07-30T12:25:55;28.00;36.10
70557;DHT22;58107;51.034;3.726;2022-07-30T12:28:26;28.00;35.40
70557;DHT22;58107;51.034;3.726;2022-07-30T12:30:56;28.10;36.10
70557;DHT22;58107;51.034;3.726;2022-07-30T12:33:24;28.20;35.00
70557;DHT22;58107;51.034;3.726;2022-07-30T12:35:54;28.50;34.60
70557;DHT22;58107;51.034;3.726;2022-07-30T12:38:24;29.50;33.10
70557;DHT22;58107;51.034;3.726;2022-07-30T12:41:03;30.50;31.00
70557;DHT22;58107;51.034;3.726;2022-07-30T12:43:49;31.10;30.00
70557;DHT22;58107;51.034;3.726;2022-07-30T12:46:19;30.70;29.90
70557;DHT22;58107;51.034;3.726;2022-07-30T12:49:01;31.00;30.10
70557;DHT22;58107;51.034;3.726;2022-07-30T12:51:32;31.20;29.50
70557;DHT22;58107;51.034;3.726;2022-07-30T12:54:01;30.50;29.80
70557;DHT22;58107;51.034;3.726;2022-07-30T12:56:29;29.90;30.80
70557;DHT22;58107;51.034;3.726;2022-07-30T12:58:58;29.40;32.40
70557;DHT22;58107;51.034;3.726;2022-07-30T13:01:59;30.10;30.90
70557;DHT22;58107;51.034;3.726;2022-07-30T13:04:07;30.50;29.90
70557;DHT22;58107;51.034;3.726;2022-07-30T13:06:35;29.70;31.00
70557;DHT22;58107;51.034;3.726;2022-07-30T13:09:04;29.60;31.30
70557;DHT22;58107;51.034;3.726;2022-07-30T13:11:40;29.70;31.00
70557;DHT22;58107;51.034;3.726;2022-07-30T13:14:09;30.10;30.70
70557;DHT22;58107;51.034;3.726;2022-07-30T13:16:38;30.80;29.90
70557;DHT22;58107;51.034;3.726;2022-07-30T13:19:07;31.70;29.00
70557;DHT22;58107;51.034;3.726;2022-07-30T13:21:37;31.00;29.10
70557;DHT22;58107;51.034;3.726;2022-07-30T13:24:05;30.10;31.50
70557;DHT22;58107;51.034;3.726;2022-07-30T13:26:33;30.10;31.30
70557;DHT22;58107;51.034;3.726;2022-07-30T13:29:02;30.50;30.70
70557;DHT22;58107;51.034;3.726;2022-07-30T13:31:30;30.90;30.10
70557;DHT22;58107;51.034;3.726;2022-07-30T13:33:58;30.60;29.70
70557;DHT22;58107;51.034;3.726;2022-07-30T13:36:26;30.00;30.40
70557;DHT22;58107;51.034;3.726;2022-07-30T13:38:53;30.00;30.30
70557;DHT22;58107;51.034;3.726;2022-07-30T13:41:21;30.30;30.40
70557;DHT22;58107;51.034;3.726;2022-07-30T13:43:49;30.20;30.10
70557;DHT22;58107;51.034;3.726;2022-07-30T13:46:16;29.80;31.00
70557;DHT22;58107;51.034;3.726;2022-07-30T13:48:44;29.50;31.70
70557;DHT22;58107;51.034;3.726;2022-07-30T13:51:12;29.10;32.10
70557;DHT22;58107;51.034;3.726;2022-07-30T13:53:40;28.70;32.90
70557;DHT22;58107;51.034;3.726;2022-07-30T13:56:08;28.90;32.70
70557;DHT22;58107;51.034;3.726;2022-07-30T13:58:36;29.20;32.20
70557;DHT22;58107;51.034;3.726;2022-07-30T14:01:04;28.90;33.10
70557;DHT22;58107;51.034;3.726;2022-07-30T14:03:32;29.20;32.70
70557;DHT22;58107;51.034;3.726;2022-07-30T14:06:00;29.80;31.40
70557;DHT22;58107;51.034;3.726;2022-07-30T14:08:28;30.30;30.60
70557;DHT22;58107;51.034;3.726;2022-07-30T14:10:57;29.90;30.70
70557;DHT22;58107;51.034;3.726;2022-07-30T14:13:25;29.70;31.20
70557;DHT22;58107;51.034;3.726;2022-07-30T14:15:53;30.20;30.40
70557;DHT22;58107;51.034;3.726;2022-07-30T14:18:20;30.00;30.20
70557;DHT22;58107;51.034;3.726;2022-07-30T14:20:48;29.60;31.20
70557;DHT22;58107;51.034;3.726;2022-07-30T14:23:16;28.80;32.20
70557;DHT22;58107;51.034;3.726;2022-07-30T14:25:44;28.50;33.10
70557;DHT22;58107;51.034;3.726;2022-07-30T14:28:13;28.70;33.10
70557;DHT22;58107;51.034;3.726;2022-07-30T14:30:41;28.50;32.70
70557;DHT22;58107;51.034;3.726;2022-07-30T14:33:10;28.50;33.20
70557;DHT22;58107;51.034;3.726;2022-07-30T14:35:38;28.50;33.00
70557;DHT22;58107;51.034;3.726;2022-07-30T14:38:05;28.20;33.90
70557;DHT22;58107;51.034;3.726;2022-07-30T14:40:33;27.70;34.30
70557;DHT22;58107;51.034;3.726;2022-07-30T14:43:01;27.70;34.60
70557;DHT22;58107;51.034;3.726;2022-07-30T14:45:28;27.70;34.70
70557;DHT22;58107;51.034;3.726;2022-07-30T14:47:56;27.70;34.80
70557;DHT22;58107;51.034;3.726;2022-07-30T14:50:24;27.60;35.00
70557;DHT22;58107;51.034;3.726;2022-07-30T14:52:52;27.50;35.30
70557;DHT22;58107;51.034;3.726;2022-07-30T14:55:19;27.60;35.40
70557;DHT22;58107;51.034;3.726;2022-07-30T14:57:47;27.50;35.50
70557;DHT22;58107;51.034;3.726;2022-07-30T15:00:15;27.50;35.90
70557;DHT22;58107;51.034;3.726;2022-07-30T15:02:43;27.40;36.00
70557;DHT22;58107;51.034;3.726;2022-07-30T15:05:11;27.30;36.10
70557;DHT22;58107;51.034;3.726;2022-07-30T15:07:38;27.40;36.10
70557;DHT22;58107;51.034;3.726;2022-07-30T15:10:07;27.40;35.70
70557;DHT22;58107;51.034;3.726;2022-07-30T15:12:35;27.40;36.10
70557;DHT22;58107;51.034;3.726;2022-07-30T15:15:04;27.30;36.10
70557;DHT22;58107;51.034;3.726;2022-07-30T15:17:31;27.40;36.10
70557;DHT22;58107;51.034;3.726;2022-07-30T15:19:59;27.40;36.20
70557;DHT22;58107;51.034;3.726;2022-07-30T15:22:27;27.30;36.20
70557;DHT22;58107;51.034;3.726;2022-07-30T15:24:55;27.50;36.20
70557;DHT22;58107;51.034;3.726;2022-07-30T15:27:22;27.80;35.50
70557;DHT22;58107;51.034;3.726;2022-07-30T15:29:50;27.80;35.40
70557;DHT22;58107;51.034;3.726;2022-07-30T15:32:18;27.90;35.50
70557;DHT22;58107;51.034;3.726;2022-07-30T15:34:45;27.80;35.80
70557;DHT22;58107;51.034;3.726;2022-07-30T15:37:13;27.60;36.10
70557;DHT22;58107;51.034;3.726;2022-07-30T15:40:00;27.50;36.40
70557;DHT22;58107;51.034;3.726;2022-07-30T15:42:28;27.50;36.80
70557;DHT22;58107;51.034;3.726;2022-07-30T15:44:57;27.60;36.70
70557;DHT22;58107;51.034;3.726;2022-07-30T15:47:24;27.70;36.60
70557;DHT22;58107;51.034;3.726;2022-07-30T15:50:13;27.80;36.60
70557;DHT22;58107;51.034;3.726;2022-07-30T15:52:43;28.10;36.40
70557;DHT22;58107;51.034;3.726;2022-07-30T15:55:11;28.00;36.10
70557;DHT22;58107;51.034;3.726;2022-07-30T15:57:39;28.10;36.30
70557;DHT22;58107;51.034;3.726;2022-07-30T16:00:08;28.10;36.40
70557;DHT22;58107;51.034;3.726;2022-07-30T16:02:36;28.30;36.20
70557;DHT22;58107;51.034;3.726;2022-07-30T16:05:04;28.50;35.70
70557;DHT22;58107;51.034;3.726;2022-07-30T16:07:32;28.80;35.20
70557;DHT22;58107;51.034;3.726;2022-07-30T16:10:00;29.30;34.20
70557;DHT22;58107;51.034;3.726;2022-07-30T16:12:28;29.50;33.60